International Falls, Minnesota
Current Conditions -  °F | °C
As of 1:55 PM on Friday 24 Oct 2014 (Local Time) from KINL Reporting Station
Clear Clear  
Wind Chill: 68°   Ceiling: Unl
Heat Index: 68°   Visibility: 10mi
Dew Point: 40°   Wind: 10mph
Humidity: 36%   Direction: 250°WSW
Pressure: 29.69"   Gusts: 20mph
Location:  48.6°N, 93.4°W
Report Text: KINL 241855Z AUTO 25009G17KT 10SM CLR 20/04 A2969 RMK AO2 SLP055 T02000044
Loading
Personal Weather Stations






























Interactive Weather Map New forecast layout! Learn more

10-Day Weather Forecast

Advertisements
Track Severe Weather on mobile